Time;durP1;ratioP1;P1;durP2;ratioP2;P2;SDS_P1;SDS_P2;PMS_P1;PMS_P2;Temp;Humidity;BMP_temperature;BMP_pressure;BME280_temperature;BME280_humidity;BME280_pressure;Samples;Min_cycle;Max_cycle;Signal;HPM_P1;HPM_P2
2021/10/31 00:01:47;;;;;;;11.03;6.23;;;11.70;98.20;;;;;;4899418;29;20468;-83
2021/10/31 00:04:13;;;;;;;9.87;5.53;;;11.70;98.20;;;;;;4899463;29;20484;-83
2021/10/31 00:06:38;;;;;;;8.87;5.90;;;11.70;98.20;;;;;;4899637;29;20064;-82
2021/10/31 00:09:07;;;;;;;9.03;5.70;;;11.60;98.20;;;;;;4883271;29;20051;-82
2021/10/31 00:11:33;;;;;;;10.23;6.10;;;11.60;98.30;;;;;;4888381;29;20036;-81
2021/10/31 00:13:59;;;;;;;7.80;5.10;;;11.60;98.30;;;;;;4887248;29;20096;-82
2021/10/31 00:16:25;;;;;;;7.00;4.80;;;11.50;98.30;;;;;;4902796;29;20441;-81
2021/10/31 00:18:51;;;;;;;7.80;5.23;;;11.50;98.30;;;;;;4902582;29;20053;-81
2021/10/31 00:21:16;;;;;;;7.40;4.73;;;11.40;98.40;;;;;;4902339;29;20048;-82
2021/10/31 00:23:42;;;;;;;7.67;4.60;;;11.40;98.40;;;;;;4887438;29;20119;-82
2021/10/31 00:26:08;;;;;;;6.37;4.70;;;11.40;98.40;;;;;;4919515;29;20051;-82
2021/10/31 00:28:33;;;;;;;9.83;5.43;;;11.30;98.40;;;;;;4887084;29;20044;-81
2021/10/31 00:30:59;;;;;;;9.97;6.00;;;11.30;98.40;;;;;;4918283;29;20188;-81
2021/10/31 00:33:25;;;;;;;6.03;5.17;;;11.40;98.50;;;;;;4887144;29;20976;-82
2021/10/31 00:35:51;;;;;;;9.33;5.80;;;11.40;98.50;;;;;;4902736;29;20032;-82
2021/10/31 00:38:16;;;;;;;7.50;5.70;;;11.40;98.50;;;;;;4886695;29;20047;-81
2021/10/31 00:40:44;;;;;;;8.57;5.60;;;11.40;98.50;;;;;;4886675;29;20044;-81
2021/10/31 00:43:09;;;;;;;7.70;4.57;;;11.40;98.50;;;;;;4902192;29;20047;-81
2021/10/31 00:45:35;;;;;;;7.00;4.50;;;11.40;98.50;;;;;;4902226;29;20488;-81
2021/10/31 00:48:01;;;;;;;7.30;4.73;;;11.40;98.50;;;;;;4902204;29;20072;-82
2021/10/31 00:50:27;;;;;;;7.43;5.77;;;11.30;98.50;;;;;;4886409;29;20032;-81
2021/10/31 00:52:52;;;;;;;7.23;4.90;;;11.40;98.60;;;;;;4886302;29;20064;-81
2021/10/31 00:55:18;;;;;;;10.40;5.17;;;11.40;98.60;;;;;;4901728;29;20032;-83
2021/10/31 00:57:46;;;;;;;8.53;5.13;;;11.40;98.60;;;;;;4886567;29;20044;-82
2021/10/31 01:00:13;;;;;;;8.80;4.93;;;11.40;98.60;;;;;;4918666;29;20489;-82
2021/10/31 01:02:39;;;;;;;7.47;5.40;;;11.30;98.60;;;;;;4902376;29;20476;-81
2021/10/31 01:05:11;;;;;;;9.97;5.50;;;11.40;98.60;;;;;;4901582;29;20036;-82
2021/10/31 01:07:46;;;;;;;6.67;4.60;;;11.30;98.80;;;;;;4918534;29;20100;-82
2021/10/31 01:10:43;;;;;;;10.57;5.87;;;11.30;98.60;;;;;;4901596;29;20108;-82
2021/10/31 01:13:34;;;;;;;6.60;4.90;;;11.20;98.60;;;;;;4917323;29;20051;-81
2021/10/31 01:16:34;;;;;;;7.97;6.00;;;11.10;98.60;;;;;;4901552;29;20040;-82
2021/10/31 01:19:21;;;;;;;8.50;5.63;;;11.10;98.60;;;;;;4908482;29;20469;-83
2021/10/31 01:21:55;;;;;;;10.37;5.33;;;11.10;98.60;;;;;;4901486;29;20480;-81
2021/10/31 01:24:39;;;;;;;8.67;5.53;;;11.10;98.60;;;;;;4919119;29;20028;-82
2021/10/31 01:27:42;;;;;;;9.30;5.57;;;11.00;98.60;;;;;;4903117;29;20028;-82
2021/10/31 01:30:20;;;;;;;6.38;5.20;;;11.00;98.60;;;;;;4903661;29;20036;-80
2021/10/31 01:33:19;;;;;;;9.70;5.63;;;10.90;98.60;;;;;;4903619;29;20036;-82
2021/10/31 01:36:00;;;;;;;9.50;5.73;;;10.90;98.70;;;;;;4898271;29;20436;-82
2021/10/31 01:38:55;;;;;;;10.93;6.43;;;10.80;98.80;;;;;;4918716;29;20041;-81
2021/10/31 01:41:40;;;;;;;9.87;6.87;;;10.90;98.80;;;;;;4917918;29;20040;-81
2021/10/31 01:44:30;;;;;;;11.77;6.53;;;10.80;98.80;;;;;;4902235;29;20036;-81
2021/10/31 01:47:27;;;;;;;11.70;6.33;;;10.80;98.90;;;;;;4918760;29;20036;-82
2021/10/31 01:50:26;;;;;;;11.90;6.60;;;10.80;98.90;;;;;;4902323;29;20103;-81
2021/10/31 01:52:57;;;;;;;12.27;7.97;;;10.70;98.90;;;;;;4901686;29;20492;-81
2021/10/31 01:55:31;;;;;;;8.87;6.70;;;10.70;99.00;;;;;;4899680;29;20036;-81
2021/10/31 01:57:59;;;;;;;13.37;7.67;;;10.70;99.10;;;;;;4916982;29;20477;-81
2021/10/31 02:00:29;;;;;;;11.67;7.97;;;10.70;99.10;;;;;;4918714;29;20556;-81
2021/10/31 02:02:57;;;;;;;11.87;7.53;;;10.70;99.20;;;;;;4902279;29;20460;-81
2021/10/31 02:05:27;;;;;;;10.33;8.47;;;10.70;99.20;;;;;;4889680;29;20080;-81
2021/10/31 02:07:57;;;;;;;10.67;7.77;;;10.80;99.30;;;;;;4902880;29;20045;-80
2021/10/31 02:10:24;;;;;;;10.23;7.90;;;10.80;99.20;;;;;;4889951;29;20032;-82
2021/10/31 02:12:51;;;;;;;11.30;8.27;;;10.80;99.20;;;;;;4903566;29;20048;-81
2021/10/31 02:15:18;;;;;;;12.00;8.37;;;10.80;99.20;;;;;;4903190;29;20091;-84
2021/10/31 02:17:51;;;;;;;12.90;8.60;;;10.80;99.20;;;;;;4889259;29;20152;-81
2021/10/31 02:20:18;;;;;;;;;;;10.80;99.20;;;;;;4913998;29;20040;-81
2021/10/31 02:23:03;;;;;;;12.57;9.27;;;10.80;99.20;;;;;;4915080;29;20423;-80
2021/10/31 02:25:30;;;;;;;15.47;9.67;;;10.80;99.20;;;;;;4915626;29;20032;-80
2021/10/31 02:27:56;;;;;;;10.93;8.53;;;10.80;99.30;;;;;;4932838;29;20040;-80
2021/10/31 02:30:22;;;;;;;13.57;9.93;;;10.80;99.30;;;;;;4915932;29;20040;-81
2021/10/31 02:32:48;;;;;;;12.73;9.43;;;10.70;99.30;;;;;;4926194;29;20067;-81
2021/10/31 02:35:15;;;;;;;15.40;9.83;;;10.70;99.30;;;;;;4888829;29;20044;-80
2021/10/31 02:37:41;;;;;;;14.60;10.67;;;10.80;99.40;;;;;;4904675;29;20044;-81
2021/10/31 02:40:10;;;;;;;16.83;11.30;;;10.70;99.30;;;;;;4904537;29;20043;-82
2021/10/31 02:42:37;;;;;;;16.37;11.67;;;10.70;99.30;;;;;;4919822;29;20036;-82
2021/10/31 02:45:04;;;;;;;13.87;10.57;;;10.70;99.30;;;;;;4903334;29;20476;-81
2021/10/31 02:47:38;;;;;;;13.60;10.20;;;10.70;99.40;;;;;;4918166;29;20032;-80
2021/10/31 02:50:07;;;;;;;16.67;11.60;;;10.70;99.30;;;;;;4917622;29;20040;-81
2021/10/31 02:52:39;;;;;;;15.17;11.50;;;10.70;99.40;;;;;;4900079;29;20035;-80
2021/10/31 02:55:42;;;;;;;17.30;12.17;;;10.70;99.40;;;;;;4900229;29;20392;-82
2021/10/31 02:58:19;;;;;;;15.02;12.82;;;10.60;99.40;;;;;;4900138;29;20407;-82
2021/10/31 03:00:46;;;;;;;18.10;12.40;;;10.60;99.40;;;;;;4916966;29;20091;-82
2021/10/31 03:03:13;;;;;;;16.97;13.07;;;10.60;99.50;;;;;;4901496;29;20469;-82
2021/10/31 03:05:39;;;;;;;17.43;12.53;;;10.60;99.50;;;;;;4901224;29;20036;-81
2021/10/31 03:08:05;;;;;;;16.43;13.00;;;10.60;99.60;;;;;;4900979;29;20044;-80
2021/10/31 03:10:31;;;;;;;15.50;12.33;;;10.60;99.60;;;;;;4916836;29;20036;-81
2021/10/31 03:12:57;;;;;;;20.00;13.10;;;10.60;99.60;;;;;;4884496;29;20139;-81
2021/10/31 03:15:24;;;;;;;14.13;12.60;;;10.60;99.60;;;;;;4900552;29;20044;-83
2021/10/31 03:17:51;;;;;;;22.07;13.83;;;10.60;99.60;;;;;;4917206;29;20076;-82
2021/10/31 03:20:17;;;;;;;18.30;12.90;;;10.60;99.60;;;;;;4917029;29;20037;-81
2021/10/31 03:22:42;;;;;;;19.00;12.83;;;10.60;99.60;;;;;;4884852;29;20047;-81
2021/10/31 03:25:08;;;;;;;17.60;13.93;;;10.60;99.70;;;;;;4900236;29;20072;-81
2021/10/31 03:27:34;;;;;;;16.63;13.37;;;10.60;99.70;;;;;;4884961;29;20047;-81
2021/10/31 03:30:00;;;;;;;21.40;13.83;;;10.70;99.70;;;;;;4884953;29;20162;-81
2021/10/31 03:32:26;;;;;;;20.37;13.23;;;10.70;99.70;;;;;;4900322;29;20491;-83
2021/10/31 03:34:51;;;;;;;17.67;13.03;;;10.80;99.70;;;;;;4885145;29;20047;-81
2021/10/31 03:37:17;;;;;;;15.77;12.57;;;10.80;99.70;;;;;;4900179;29;20481;-82
2021/10/31 03:39:43;;;;;;;14.43;11.67;;;10.80;99.70;;;;;;4885042;29;20048;-82
2021/10/31 03:42:08;;;;;;;19.23;12.73;;;10.80;99.70;;;;;;4901755;29;20072;-82
2021/10/31 03:44:37;;;;;;;15.97;13.53;;;10.80;99.60;;;;;;4920642;29;20403;-82
2021/10/31 03:47:04;;;;;;;15.13;12.13;;;10.80;99.60;;;;;;4916408;29;20035;-82
2021/10/31 03:49:30;;;;;;;14.00;12.03;;;10.80;99.60;;;;;;4923169;29;20056;-83
2021/10/31 03:51:56;;;;;;;13.50;12.10;;;10.80;99.60;;;;;;4923374;29;20151;-81
2021/10/31 03:54:21;;;;;;;15.20;12.93;;;10.80;99.60;;;;;;4907590;29;20060;-82
2021/10/31 03:56:47;;;;;;;15.20;12.40;;;10.80;99.60;;;;;;4907427;29;20036;-80
2021/10/31 03:59:13;;;;;;;14.50;11.60;;;10.80;99.60;;;;;;4909863;29;20067;-82
2021/10/31 04:01:38;;;;;;;12.37;11.07;;;10.80;99.60;;;;;;4908677;29;20020;-81
2021/10/31 04:04:04;;;;;;;16.70;12.03;;;10.80;99.60;;;;;;4942545;29;20036;-81
2021/10/31 04:06:30;;;;;;;13.97;12.10;;;10.90;99.60;;;;;;4926414;29;20025;-85
2021/10/31 04:08:55;;;;;;;15.33;13.00;;;10.90;99.60;;;;;;4910194;29;20058;-80
2021/10/31 04:11:21;;;;;;;16.83;12.03;;;10.90;99.50;;;;;;4909098;29;20036;-81
2021/10/31 04:13:47;;;;;;;14.77;12.40;;;10.90;99.50;;;;;;4908081;29;20072;-83
2021/10/31 04:16:13;;;;;;;16.93;12.37;;;10.80;99.50;;;;;;4923040;29;20043;-82
2021/10/31 04:18:38;;;;;;;16.43;11.63;;;10.80;99.50;;;;;;4919776;29;20048;-81
2021/10/31 04:21:04;;;;;;;15.40;12.13;;;10.80;99.40;;;;;;4904267;29;20052;-83
2021/10/31 04:23:30;;;;;;;12.37;11.07;;;10.80;99.40;;;;;;4917676;29;20028;-82
2021/10/31 04:25:56;;;;;;;13.20;11.80;;;10.80;99.40;;;;;;4914153;29;20072;-82
2021/10/31 04:28:24;;;;;;;15.30;12.90;;;10.80;99.40;;;;;;4909520;29;20036;-81
2021/10/31 04:30:49;;;;;;;20.23;13.27;;;10.80;99.40;;;;;;4905561;29;20036;-82
2021/10/31 04:33:16;;;;;;;16.40;12.40;;;10.80;99.40;;;;;;4887689;29;20144;-81
2021/10/31 04:35:42;;;;;;;16.40;14.47;;;10.80;99.40;;;;;;4902635;29;20054;-81
2021/10/31 04:38:14;;;;;;;16.90;13.07;;;10.80;99.40;;;;;;4887394;29;20576;-80
2021/10/31 04:40:41;;;;;;;15.00;13.40;;;10.70;99.40;;;;;;4903323;29;20076;-82
2021/10/31 04:43:11;;;;;;;15.10;13.53;;;10.80;99.40;;;;;;4918945;29;20028;-81
2021/10/31 04:45:41;;;;;;;15.20;13.33;;;10.80;99.40;;;;;;4902861;29;20481;-81
2021/10/31 04:48:08;;;;;;;16.17;13.60;;;10.80;99.40;;;;;;4921448;29;20489;-82
2021/10/31 04:50:34;;;;;;;16.50;14.70;;;10.80;99.40;;;;;;4903555;29;20036;-80
2021/10/31 04:53:00;;;;;;;19.00;13.73;;;10.80;99.20;;;;;;4887629;29;20481;-80
2021/10/31 04:55:26;;;;;;;18.20;14.33;;;10.80;99.40;;;;;;4887136;29;20219;-81
2021/10/31 04:57:52;;;;;;;22.30;15.20;;;10.80;99.40;;;;;;4902139;29;20541;-81
2021/10/31 05:00:18;;;;;;;16.73;14.60;;;10.80;99.40;;;;;;4919249;29;20170;-81
2021/10/31 05:02:44;;;;;;;20.03;15.97;;;10.80;99.40;;;;;;4902515;29;20062;-82
2021/10/31 05:05:09;;;;;;;19.73;16.20;;;10.70;99.30;;;;;;4902054;29;20107;-81
2021/10/31 05:07:35;;;;;;;19.13;15.57;;;10.80;99.40;;;;;;4871270;29;20111;-83
2021/10/31 05:10:02;;;;;;;23.53;18.90;;;10.80;99.40;;;;;;4886466;29;20043;-80
2021/10/31 05:12:27;;;;;;;22.37;18.07;;;10.80;99.40;;;;;;4901887;29;20107;-81
2021/10/31 05:14:53;;;;;;;27.10;20.80;;;10.80;99.40;;;;;;4886310;29;20040;-79
2021/10/31 05:17:19;;;;;;;25.20;20.40;;;10.80;99.30;;;;;;4903330;29;20047;-81
2021/10/31 05:19:45;;;;;;;23.63;18.40;;;10.80;99.30;;;;;;4903087;29;20074;-81
2021/10/31 05:22:11;;;;;;;24.80;19.43;;;10.80;99.20;;;;;;4887562;29;20040;-81
2021/10/31 05:24:36;;;;;;;21.90;18.93;;;10.80;99.20;;;;;;4887634;29;20133;-81
2021/10/31 05:27:02;;;;;;;27.97;20.73;;;10.80;99.20;;;;;;4919350;29;20100;-80
2021/10/31 05:29:28;;;;;;;21.27;18.73;;;10.80;99.20;;;;;;4920050;29;20125;-80
2021/10/31 05:31:54;;;;;;;26.00;19.20;;;10.80;99.20;;;;;;4886894;29;20036;-81
2021/10/31 05:34:20;;;;;;;25.40;20.73;;;10.80;99.20;;;;;;4902878;29;20499;-81
2021/10/31 05:36:45;;;;;;;25.70;20.43;;;10.80;99.20;;;;;;4902480;29;20040;-80
2021/10/31 05:39:11;;;;;;;25.70;19.57;;;10.80;99.20;;;;;;4919078;29;20036;-82
2021/10/31 05:41:36;;;;;;;23.63;18.67;;;10.70;99.10;;;;;;4887088;29;20051;-81
2021/10/31 05:44:02;;;;;;;20.43;16.93;;;10.80;99.10;;;;;;4887978;29;20119;-82
2021/10/31 05:46:29;;;;;;;22.87;18.43;;;10.80;99.10;;;;;;4919807;29;20040;-82
2021/10/31 05:48:55;;;;;;;21.90;18.40;;;10.80;99.10;;;;;;4886339;29;20048;-83
2021/10/31 05:51:20;;;;;;;18.10;16.20;;;10.70;99.10;;;;;;4902757;29;20108;-81
2021/10/31 05:53:46;;;;;;;17.13;14.83;;;10.70;99.00;;;;;;4884931;29;20036;-82
2021/10/31 05:56:12;;;;;;;18.37;15.40;;;10.70;99.00;;;;;;4887265;29;20456;-82
2021/10/31 05:58:38;;;;;;;17.33;14.17;;;10.70;99.00;;;;;;4903002;29;20032;-82
2021/10/31 06:01:04;;;;;;;16.53;13.93;;;10.70;98.90;;;;;;4901087;29;20553;-80
2021/10/31 06:03:30;;;;;;;16.33;13.40;;;10.70;98.90;;;;;;4886211;29;20036;-81
2021/10/31 06:05:58;;;;;;;13.53;12.13;;;10.80;98.90;;;;;;4918888;29;20076;-82
2021/10/31 06:08:25;;;;;;;14.60;12.20;;;10.80;98.90;;;;;;4902603;29;20477;-81
2021/10/31 06:10:52;;;;;;;16.50;12.60;;;10.80;98.80;;;;;;4886050;29;20052;-81
2021/10/31 06:13:19;;;;;;;13.90;10.77;;;10.80;98.80;;;;;;4901793;29;20504;-81
2021/10/31 06:15:46;;;;;;;12.47;11.20;;;10.80;98.70;;;;;;4900959;29;20044;-81
2021/10/31 06:18:18;;;;;;;12.60;11.30;;;10.80;98.70;;;;;;4902038;29;20040;-80
2021/10/31 06:20:45;;;;;;;10.90;9.83;;;10.80;98.60;;;;;;4902382;29;20553;-81
2021/10/31 06:23:11;;;;;;;10.53;9.53;;;10.80;98.50;;;;;;4903189;29;20036;-81
2021/10/31 06:25:37;;;;;;;14.13;10.53;;;10.80;98.50;;;;;;4903176;29;20041;-81
2021/10/31 06:28:03;;;;;;;11.93;9.23;;;10.80;98.40;;;;;;4903863;29;20052;-81
2021/10/31 06:30:29;;;;;;;9.27;7.63;;;10.80;98.40;;;;;;4887805;29;20060;-81
2021/10/31 06:32:55;;;;;;;8.47;7.67;;;10.80;98.30;;;;;;4900933;29;20082;-80
2021/10/31 06:35:20;;;;;;;8.13;7.43;;;10.80;98.20;;;;;;4884938;29;20166;-82
2021/10/31 06:37:48;;;;;;;8.57;7.77;;;10.90;98.20;;;;;;4917463;29;20385;-80
2021/10/31 06:40:16;;;;;;;8.23;7.40;;;10.80;98.10;;;;;;4916227;29;20036;-81
2021/10/31 06:42:42;;;;;;;9.03;7.70;;;10.90;98.00;;;;;;4900768;29;20046;-82
2021/10/31 06:45:08;;;;;;;7.43;6.67;;;10.90;98.00;;;;;;4900651;29;20283;-81
2021/10/31 06:47:34;;;;;;;10.50;7.63;;;10.90;98.00;;;;;;4900153;29;20036;-81
2021/10/31 06:50:00;;;;;;;9.20;7.73;;;10.90;97.90;;;;;;4917853;29;20465;-81
2021/10/31 06:52:26;;;;;;;7.87;7.07;;;11.00;97.90;;;;;;4900121;29;20032;-81
2021/10/31 06:54:52;;;;;;;7.87;6.57;;;11.00;97.80;;;;;;4884259;29;20043;-83
2021/10/31 06:57:19;;;;;;;7.90;7.07;;;11.00;97.80;;;;;;4900590;29;20040;-82
2021/10/31 06:59:44;;;;;;;7.73;7.03;;;11.00;97.70;;;;;;4918016;29;20048;-82
2021/10/31 07:02:10;;;;;;;8.03;6.90;;;11.10;97.60;;;;;;4886909;29;20057;-81
2021/10/31 07:04:36;;;;;;;9.87;6.70;;;11.10;97.40;;;;;;4903395;29;20040;-81
2021/10/31 07:07:02;;;;;;;10.30;6.93;;;11.20;97.30;;;;;;4903160;29;20515;-82
2021/10/31 07:09:28;;;;;;;7.50;6.80;;;11.30;97.30;;;;;;4921302;29;20047;-84
2021/10/31 07:11:55;;;;;;;7.87;6.93;;;11.40;96.90;;;;;;4902984;29;20508;-81
2021/10/31 07:14:21;;;;;;;7.87;6.50;;;11.40;96.60;;;;;;4903519;29;20100;-82
2021/10/31 07:16:47;;;;;;;8.20;6.23;;;11.40;96.40;;;;;;4903655;29;20067;-82
2021/10/31 07:19:13;;;;;;;7.27;6.00;;;11.40;96.40;;;;;;4900963;29;20067;-82
2021/10/31 07:21:38;;;;;;;6.53;6.00;;;11.30;96.40;;;;;;4888122;29;20048;-81
2021/10/31 07:24:05;;;;;;;8.90;5.87;;;11.30;96.40;;;;;;4886117;29;20092;-83
2021/10/31 07:26:33;;;;;;;8.10;6.47;;;11.20;96.50;;;;;;4888671;29;20630;-82
2021/10/31 07:28:59;;;;;;;6.60;6.00;;;11.20;96.70;;;;;;4906914;29;20029;-83
2021/10/31 07:31:26;;;;;;;6.27;5.77;;;11.20;96.60;;;;;;4871195;29;20078;-83
2021/10/31 07:33:55;;;;;;;6.83;6.10;;;11.30;96.70;;;;;;4871896;29;20129;-82
2021/10/31 07:36:21;;;;;;;6.17;5.27;;;11.30;96.60;;;;;;4889096;29;20037;-82
2021/10/31 07:38:46;;;;;;;6.40;4.93;;;11.40;96.60;;;;;;4902614;29;20044;-82
2021/10/31 07:41:12;;;;;;;5.60;4.97;;;11.50;96.30;;;;;;4903711;29;20044;-81
2021/10/31 07:43:38;;;;;;;7.27;5.13;;;11.70;96.30;;;;;;4906303;29;20091;-82
2021/10/31 07:46:04;;;;;;;6.00;4.60;;;12.00;95.90;;;;;;4921564;29;20048;-82
2021/10/31 07:48:30;;;;;;;4.40;4.00;;;12.40;95.00;;;;;;4904972;29;20048;-83
2021/10/31 07:50:56;;;;;;;3.95;3.55;;;12.80;94.20;;;;;;4889199;29;20044;-83
2021/10/31 07:53:22;;;;;;;3.30;3.00;;;13.10;93.40;;;;;;4904527;29;20036;-83
2021/10/31 07:55:53;;;;;;;4.25;3.28;;;13.50;92.30;;;;;;4903627;29;20040;-84
2021/10/31 07:58:23;;;;;;;3.28;2.53;;;13.80;91.10;;;;;;4887445;29;20036;-83
2021/10/31 08:00:49;;;;;;;3.42;2.03;;;14.20;90.40;;;;;;4917584;29;20111;-83
2021/10/31 08:03:16;;;;;;;3.33;1.92;;;14.40;88.90;;;;;;4902854;29;20044;-82
2021/10/31 08:05:43;;;;;;;3.67;2.38;;;14.40;86.40;;;;;;4920597;29;20040;-83
2021/10/31 08:08:09;;;;;;;3.40;1.60;;;14.30;87.40;;;;;;4914248;29;20040;-83
2021/10/31 08:10:34;;;;;;;2.30;1.70;;;14.20;86.10;;;;;;4905132;29;20211;-83
2021/10/31 08:13:00;;;;;;;4.22;1.52;;;14.10;86.60;;;;;;4903628;29;20060;-83
2021/10/31 08:15:26;;;;;;;3.80;2.30;;;14.00;86.70;;;;;;4903565;29;20040;-83
2021/10/31 08:17:52;;;;;;;3.42;2.08;;;14.00;87.40;;;;;;4909086;29;20107;-82
2021/10/31 08:20:17;;;;;;;3.20;1.45;;;14.00;86.60;;;;;;4895893;29;20120;-83
2021/10/31 08:22:44;;;;;;;2.47;1.70;;;14.00;86.60;;;;;;4892790;29;20041;-82
2021/10/31 08:25:10;;;;;;;3.85;2.75;;;14.00;86.20;;;;;;4907583;29;20069;-83
2021/10/31 08:27:36;;;;;;;7.53;4.75;;;14.00;85.80;;;;;;4904373;29;20036;-83
2021/10/31 08:30:03;;;;;;;5.57;1.85;;;14.10;86.50;;;;;;4919128;29;20100;-83
2021/10/31 08:32:38;;;;;;;2.60;2.20;;;14.30;85.90;;;;;;4901795;29;20036;-81
2021/10/31 08:35:04;;;;;;;5.65;4.88;;;14.50;85.20;;;;;;4904205;29;20090;-81
2021/10/31 08:37:30;;;;;;;2.80;2.42;;;14.60;85.50;;;;;;4925357;29;20067;-82
2021/10/31 08:39:56;;;;;;;2.33;1.63;;;14.50;82.70;;;;;;4889848;29;20131;-84
2021/10/31 08:42:21;;;;;;;3.88;1.83;;;14.30;83.00;;;;;;4920068;29;20179;-84
2021/10/31 08:44:47;;;;;;;4.53;2.38;;;14.10;84.00;;;;;;4902251;29;20132;-84
2021/10/31 08:47:13;;;;;;;3.70;2.67;;;13.80;84.60;;;;;;4887700;29;20032;-83
2021/10/31 08:49:38;;;;;;;4.40;2.00;;;13.70;85.60;;;;;;4920859;29;20171;-84
2021/10/31 08:52:07;;;;;;;3.75;2.00;;;13.60;86.40;;;;;;4885672;29;20100;-87
2021/10/31 08:54:37;;;;;;;2.30;2.05;;;13.50;86.30;;;;;;4902222;29;20032;-82
2021/10/31 08:57:04;;;;;;;4.07;2.05;;;13.30;86.80;;;;;;4918472;29;20070;-82
2021/10/31 08:59:30;;;;;;;4.55;2.20;;;13.30;86.70;;;;;;4884118;29;20064;-81
2021/10/31 09:01:56;;;;;;;4.45;3.67;;;13.30;87.40;;;;;;4902072;29;20100;-83
2021/10/31 09:04:21;;;;;;;5.47;3.35;;;13.30;87.40;;;;;;4899334;29;20048;-83
2021/10/31 09:06:47;;;;;;;3.63;1.75;;;13.40;87.70;;;;;;4886295;29;20044;-82
2021/10/31 09:09:13;;;;;;;3.72;3.08;;;13.50;87.00;;;;;;4901058;29;20044;-84
2021/10/31 09:11:39;;;;;;;3.17;1.60;;;13.50;86.80;;;;;;4904391;29;20040;-82
2021/10/31 09:14:04;;;;;;;2.70;2.15;;;13.60;86.80;;;;;;4889280;29;20056;-83
2021/10/31 09:16:31;;;;;;;10.05;3.95;;;13.90;86.70;;;;;;4910362;29;20040;-81
2021/10/31 09:18:56;;;;;;;3.42;1.92;;;14.20;85.00;;;;;;4890723;29;20067;-80
2021/10/31 09:21:24;;;;;;;3.97;2.17;;;14.40;83.30;;;;;;4913663;29;20032;-82
2021/10/31 09:23:50;;;;;;;6.60;2.30;;;14.80;84.30;;;;;;4899150;29;20050;-82
2021/10/31 09:26:17;;;;;;;2.65;1.40;;;15.10;82.70;;;;;;4897952;29;20126;-83
2021/10/31 09:28:43;;;;;;;1.75;1.00;;;15.30;80.90;;;;;;4917513;29;20048;-83
2021/10/31 09:31:08;;;;;;;2.33;1.30;;;15.50;79.30;;;;;;4918627;29;20117;-82
2021/10/31 09:33:38;;;;;;;3.58;1.20;;;15.70;78.40;;;;;;4933167;29;20656;-84
2021/10/31 09:36:05;;;;;;;3.92;1.05;;;15.70;77.90;;;;;;4913518;29;20044;-83
2021/10/31 09:38:31;;;;;;;1.88;0.80;;;15.80;77.70;;;;;;4892666;29;20063;-81
2021/10/31 09:40:58;;;;;;;2.63;1.08;;;16.00;78.20;;;;;;4898767;29;20040;-82
2021/10/31 09:43:27;;;;;;;1.52;0.90;;;16.10;76.00;;;;;;4914160;29;20107;-84
2021/10/31 09:45:55;;;;;;;1.90;1.00;;;16.10;76.50;;;;;;4911475;29;20036;-83
2021/10/31 09:48:20;;;;;;;3.40;0.93;;;16.10;76.70;;;;;;4919036;29;20051;-84
2021/10/31 09:50:49;;;;;;;3.30;0.80;;;16.10;76.80;;;;;;4903491;29;20036;-84
2021/10/31 09:53:20;;;;;;;1.77;0.82;;;16.30;76.80;;;;;;4923129;29;20044;-86
2021/10/31 09:55:47;;;;;;;4.40;1.02;;;16.60;75.60;;;;;;4917857;29;20036;-84
2021/10/31 09:58:23;;;;;;;1.50;0.70;;;16.90;75.30;;;;;;4914282;29;20047;-84
2021/10/31 10:00:54;;;;;;;2.65;0.93;;;17.00;74.30;;;;;;4919373;29;20048;-83
2021/10/31 10:03:43;;;;;;;3.80;1.00;;;17.20;74.00;;;;;;4913026;29;20039;-84
2021/10/31 10:06:14;;;;;;;1.65;0.90;;;17.30;74.00;;;;;;4933508;29;20095;-84
2021/10/31 10:09:15;;;;;;;3.10;0.80;;;17.20;73.00;;;;;;4913491;29;20040;-84
2021/10/31 10:11:42;;;;;;;2.85;0.98;;;17.10;73.60;;;;;;4877754;29;20094;-83
2021/10/31 10:14:23;;;;;;;1.67;0.75;;;16.90;74.70;;;;;;4922079;29;20054;-85
2021/10/31 10:16:48;;;;;;;1.35;0.82;;;16.90;74.80;;;;;;4903888;29;20043;-82
2021/10/31 10:19:18;;;;;;;2.13;0.80;;;16.90;74.90;;;;;;4905793;29;20135;-82
2021/10/31 10:21:50;;;;;;;1.52;0.80;;;17.10;74.70;;;;;;4922123;29;20036;-84
2021/10/31 10:24:16;;;;;;;1.65;0.73;;;17.20;74.20;;;;;;4905510;29;20484;-84
2021/10/31 10:26:45;;;;;;;1.85;0.95;;;17.40;73.60;;;;;;4886917;29;20056;-82
2021/10/31 10:29:20;;;;;;;2.10;0.80;;;17.50;72.90;;;;;;4915897;29;20115;-83
2021/10/31 10:31:50;;;;;;;1.33;0.55;;;17.70;72.50;;;;;;4902417;29;20119;-83
2021/10/31 10:34:16;;;;;;;2.22;0.60;;;17.70;72.00;;;;;;4917646;29;20119;-84
2021/10/31 10:36:44;;;;;;;1.20;0.50;;;17.70;72.30;;;;;;4900922;29;20032;-84
2021/10/31 10:39:13;;;;;;;2.00;0.50;;;17.70;72.50;;;;;;4916883;29;20044;-82
2021/10/31 10:41:43;;;;;;;1.92;0.60;;;17.80;72.00;;;;;;4900492;29;20397;-83
2021/10/31 10:44:32;;;;;;;1.63;0.40;;;17.70;72.00;;;;;;4900420;29;20119;-83
2021/10/31 10:47:02;;;;;;;0.77;0.38;;;17.60;72.50;;;;;;4902002;29;20108;-84
2021/10/31 10:49:31;;;;;;;1.60;0.90;;;17.60;73.20;;;;;;4900685;29;20076;-83
2021/10/31 10:52:20;;;;;;;1.38;0.60;;;17.70;73.50;;;;;;4899901;29;20043;-85
2021/10/31 10:54:57;;;;;;;1.30;0.50;;;17.60;72.80;;;;;;4899733;29;20036;-83
2021/10/31 10:57:26;;;;;;;2.67;0.50;;;17.30;73.50;;;;;;4917047;29;20103;-82
2021/10/31 10:59:57;;;;;;;2.15;0.60;;;17.00;74.40;;;;;;4883541;29;20117;-81
2021/10/31 11:02:24;;;;;;;1.83;0.60;;;16.80;75.60;;;;;;4898177;29;20060;-80
2021/10/31 11:05:19;;;;;;;1.20;0.50;;;16.80;75.70;;;;;;4916834;29;20060;-81
2021/10/31 11:07:48;;;;;;;3.25;0.60;;;16.80;76.50;;;;;;4900918;29;20040;-82
2021/10/31 11:10:25;;;;;;;1.48;0.60;;;16.90;76.30;;;;;;4901223;29;20037;-82
2021/10/31 11:12:57;;;;;;;1.30;0.50;;;16.80;76.40;;;;;;4901181;29;20157;-82
2021/10/31 11:15:26;;;;;;;1.70;0.50;;;16.90;76.60;;;;;;4916150;29;20044;-83
2021/10/31 11:17:53;;;;;;;2.08;0.50;;;16.80;76.60;;;;;;4917711;29;20048;-82
2021/10/31 11:20:22;;;;;;;2.25;0.65;;;16.90;77.10;;;;;;4899613;29;20095;-79
2021/10/31 11:22:54;;;;;;;2.22;0.40;;;17.00;76.90;;;;;;4899579;29;20040;-82
2021/10/31 11:25:22;;;;;;;3.30;0.50;;;17.10;76.90;;;;;;4915718;29;20084;-82
2021/10/31 11:27:52;;;;;;;2.42;0.40;;;17.00;76.60;;;;;;4885441;29;20047;-83
2021/10/31 11:30:21;;;;;;;1.50;0.47;;;16.80;77.00;;;;;;4916627;29;20039;-80
2021/10/31 11:32:50;;;;;;;1.65;0.43;;;16.80;77.40;;;;;;4885079;29;20038;-83
2021/10/31 11:35:18;;;;;;;1.42;0.50;;;16.70;78.40;;;;;;4905406;29;20032;-82
2021/10/31 11:38:09;;;;;;;1.88;0.55;;;16.60;78.70;;;;;;4890087;29;20135;-82
2021/10/31 11:41:06;;;;;;;2.35;0.55;;;16.60;79.00;;;;;;4918753;29;20051;-83
2021/10/31 11:43:35;;;;;;;5.68;0.68;;;16.60;79.50;;;;;;4906405;29;20028;-84
2021/10/31 11:46:03;;;;;;;4.80;0.65;;;16.60;79.70;;;;;;4906673;29;20044;-84
2021/10/31 11:48:37;;;;;;;1.52;0.50;;;16.70;79.20;;;;;;4922365;29;20031;-83
2021/10/31 11:51:03;;;;;;;0.90;0.50;;;16.70;79.50;;;;;;4892040;29;20044;-84
2021/10/31 11:53:47;;;;;;;2.08;0.52;;;16.70;79.40;;;;;;4903067;29;20043;-82
2021/10/31 11:56:24;;;;;;;2.92;0.60;;;16.80;79.40;;;;;;4904867;29;20569;-84
2021/10/31 11:58:52;;;;;;;2.05;0.70;;;16.80;79.30;;;;;;4903940;29;20517;-84
2021/10/31 12:01:38;;;;;;;5.22;1.00;;;16.90;79.30;;;;;;4922401;29;20045;-85
2021/10/31 12:04:36;;;;;;;2.17;0.70;;;16.90;79.50;;;;;;4921047;29;20028;-86
2021/10/31 12:07:31;;;;;;;3.03;0.60;;;16.90;79.60;;;;;;4909866;29;20032;-84
2021/10/31 12:09:57;;;;;;;2.17;0.70;;;16.90;79.70;;;;;;4927653;29;20032;-86
2021/10/31 12:12:23;;;;;;;3.88;0.70;;;16.80;80.00;;;;;;4897244;29;20547;-83
2021/10/31 12:14:51;;;;;;;2.65;0.63;;;16.90;80.10;;;;;;4910550;29;20055;-84
2021/10/31 12:17:18;;;;;;;2.35;0.50;;;17.00;80.10;;;;;;4918106;29;20415;-83
2021/10/31 12:19:49;;;;;;;3.80;2.22;;;16.90;80.20;;;;;;4914655;29;20036;-83
2021/10/31 12:22:30;;;;;;;1.30;0.60;;;17.00;80.60;;;;;;4917520;29;20055;-82
2021/10/31 12:25:07;;;;;;;1.77;0.50;;;17.00;80.50;;;;;;4932229;29;20040;-83
2021/10/31 12:27:47;;;;;;;2.90;0.98;;;17.00;80.90;;;;;;4914042;29;20035;-84
2021/10/31 12:30:27;;;;;;;1.80;0.60;;;17.00;81.50;;;;;;4914231;29;20587;-86
2021/10/31 12:33:09;;;;;;;1.70;0.60;;;17.10;81.10;;;;;;4928226;29;20043;-85
2021/10/31 12:35:41;;;;;;;2.70;0.60;;;17.10;80.90;;;;;;4925231;29;20036;-85
2021/10/31 12:38:16;;;;;;;1.85;0.80;;;17.20;81.30;;;;;;4907038;29;20036;-84
2021/10/31 12:40:43;;;;;;;3.97;0.75;;;17.20;81.40;;;;;;4907536;29;20051;-86
2021/10/31 12:43:09;;;;;;;1.90;0.70;;;17.30;81.00;;;;;;4908453;29;20028;-86
2021/10/31 12:45:37;;;;;;;1.85;0.70;;;17.40;81.10;;;;;;4906532;29;20452;-88
2021/10/31 12:48:13;;;;;;;2.08;0.70;;;17.40;80.50;;;;;;4893817;29;20040;-89
2021/10/31 12:50:47;;;;;;;2.20;0.70;;;17.40;79.70;;;;;;4908041;29;20037;-86
2021/10/31 12:53:16;;;;;;;2.10;0.60;;;17.50;79.90;;;;;;4913705;29;20047;-88